GQPP

Details ICAO GQPP (NDB)
Name NOUADHIBOU
Region Mauritania
Timezone Africa/Nouakchott (UTC+0.0)
Plans Departing 26
Arriving 26
Stats Elevation 16 ft / 5 m (AMSL)
Location 20.932931° -17.029914°
Runways 1
Magnetic Variation 5.996° W
Sunrise 2018-05-27 06:28:33 UTC / 2018-05-27 06:28:33 Local
Sunset 2018-05-27 19:44:53 UTC / 2018-05-27 19:44:53 Local
Advertisement - Login to hide

Runways

ID Width Length Bearing (true) Bearing (mag) Surface Threshold Offset Overrun Length
02 148 ft / 45 m 7,995 ft / 2,437 m 14.33° 20.33° Asphalt 0 ft / 0 m 0 ft / 0 m
20 148 ft / 45 m 7,995 ft / 2,437 m 194.33° 200.33° Asphalt 0 ft / 0 m 0 ft / 0 m

Map

Weather


0- 5 10 15 20 25 30 35+ Temperature / ° C

Clouds and Precipitation
Forecast for 2018-05-27 18:00 UTC. Updated 5 hours ago

Ground ~20,000 ft ~40,000 ft Winds

METAR

GQPP 272200Z 01018KT 7000 NSC 20/13 Q1016 NOSIG

TAF

TAF GQPP 271700Z 2718/2818 35016KT 6000 NSC TEMPO 2718/2720 4000 DRSA

Frequencies

Tower 120.80 MHz TWR
Warning: Do not use this data for real-world aviation or navigation. No guarantee of current accuracy is given.